Airfield :
LOGIN :

Register | Disclaimer

   EN    FR    IT 

 










Legend :    VFR   Marginal VFR   IFR   Intensive IFR   Very Intensive IFR
Visi :
Ceiling :
>= 8 km
>= 3000ft
5 to 8 km
1000 to 3000 ft
1500m to 5 km
500 to 1000 ft
800 to 1500m
200 to 500 ft
< 800m
< 200 ft
Symbols :   Thunderstorms  Fog  Heavy snow  Heavy precipitations  Wind > 20 kt
SIGMETs :     Misc.  Thunderstorms  Icing  Turbulence  Mountain Waves  Volcanic Ashes






- Airport Elevation : 333 ft


LIPL - Ghedi Brescia (Mil)

CURRENT METAR :
  • 152255Z 31003KT 2200 BR SCT035 SCT070 04/03 Q1018 RMK BKN VIS MIN 2200 WIND THR31 /////KT WIND THR13 31003KT YLO

EXPIRED METARs :
  • 152155Z 24002KT 2400 BR SCT035 SCT070 04/03 Q1018 RMK BKN VIS MIN 2400 WIND THR31 /////KT WIND THR13 25002KT YLO
  • 152055Z 26002KT 3000 BR SCT040 SCT080 05/04 Q1018 RMK BKN VIS MIN 3000 WIND THR31 /////KT WIND THR13 25002KT YLO

TAF TAF LIPL
Valid from the 15 at 21:00 until the 16 at 06:00 UTC


152000Z 1521/1606 VRB05KT 7000 SCT040 BKN050
TEMPO 1521/1524 4000 BR
TEMPO 1600/1606 2000 RA



MET'MAP, your aeronautical weather chart ! - Copyright ORBIFLY December 2007 - Disclaimer

ORBIFLY MET'MAP TEAM :

Programming & Development : Alexandra Zaïnal
Concept & original design : Baudouin d'Aumeries
Assistance for programming : Marc-Olivier Méhu
Technical & hardware support : Manuel Goepfert

Contact : metmap@orbifly.com




SOURCES & CREDITS :

   NOAA